Airfield :
LOGIN :

Register | Disclaimer

   EN    FR    IT 

 










Legend :    VFR   Marginal VFR   IFR   Intensive IFR   Very Intensive IFR
Visi :
Ceiling :
>= 8 km
>= 3000ft
5 to 8 km
1000 to 3000 ft
1500m to 5 km
500 to 1000 ft
800 to 1500m
200 to 500 ft
< 800m
< 200 ft
Symbols :   Thunderstorms  Fog  Heavy snow  Heavy precipitations  Wind > 20 kt
SIGMETs :     Misc.  Thunderstorms  Icing  Turbulence  Mountain Waves  Volcanic Ashes







- Airport Elevation : 162 ft
- IATA code : BOD
- Download approach charts


LFBD - Bordeaux / Merignac

CURRENT METAR :
  • 250330Z AUTO 00000KT 9999 -RA FEW034/// BKN040/// OVC049/// ///TCU 10/08 Q1002 TEMPO 4000 -RA BECMG 27010KT SCT025 BKN040

EXPIRED METARs :
  • 250300Z AUTO VRB03KT 9999 -RA BKN041/// OVC052/// ///TCU 11/08 Q1002 TEMPO 4000 -RA BECMG SCT025 BKN040
  • 250230Z AUTO 26006KT 9999 BKN040/// BKN052/// BKN064/// ///TCU 11/07 Q1001 TEMPO 4000 -RA BECMG SCT025 BKN040
  • 250200Z AUTO 27006KT 9999 BKN040/// BKN076/// OVC100/// ///TCU 12/07 Q1001 TEMPO 4000 -RA BECMG BKN040
  • 250130Z AUTO 27010KT 9999 SCT026 OVC035 12/07 Q1001 TEMPO 4000 -RA BECMG 20008KT
  • 250100Z AUTO 26009KT 9999 BKN028 BKN064 BKN140 13/08 Q1001 TEMPO 4000 -RA

TAF AMD TAF LFBD
Valid from the 25 at 01:00 until the 26 at 06:00 UTC


250152Z 2501/2606 27010KT 9999 SCT025 BKN040 TX18/2514Z TN10/2506Z
TEMPO 2501/2505 4000 -RA
BECMG 2510/2512 23015G25KT
BECMG 2518/2520 18008KT
TEMPO 2521/2606 20015G25KT 4500 -SHRA BKN040TCU
PROB30 2601/2606 23018G30KT 3500 -SHRA BKN012 BKN030TCU
ATIS : +33 5 57 92 81 04
No reported NOTAMs for that airfield.
3 SIGMETs reported for the Bordeaux FIR (LFBB) :
 
Severe mountain waves
LFBB SIGMET 2 VALID 250300/250700 LFPW
LFBB BORDEAUX FIR/UIR SEV MTW FCST WI N4245 E00230 - N4215 E00230 - N4230 E00045 - N4300 E00100 - N4245 E00230 SFC/FL370 STNR WKN=
Severe turbulence
LFBB SIGMET 11 VALID 242300/250300 LFPW
LFBB BORDEAUX FIR/UIR SEV TURB FCST WI N4630 E00300 - N4315 E00230 - N4330 E00130 - N4630 E00300 SFC/FL080 STNR NC=
Severe turbulence
LFBB SIGMET 1 VALID 250300/250700 LFPW
LFBB BORDEAUX FIR/UIR SEV TURB FCST WI N4630 E00300 - N4315 E00230 - N4330 E00130 - N4630 E00300 SFC/FL080 STNR WKN=



MET'MAP, your aeronautical weather chart ! - Copyright ORBIFLY December 2007 - Disclaimer

ORBIFLY MET'MAP TEAM :

Programming & Development : Alexandra Zaïnal
Concept & Development : Baudouin d'Aumeries
Co-Development & Prog : Marc-Olivier Méhu
Technical & hardware support : Manuel Goepfert

Contact : metmap@orbifly.com




SOURCES & CREDITS :

   NOAA